sensor_id;sensor_type;location;lat;lon;timestamp;P1;P2;P0
76421;PMS5003;65254;52.354;13.614;2023-05-10T00:00:00;7;7;
76421;PMS5003;65254;52.354;13.614;2023-05-10T00:04:00;7;7;
76421;PMS5003;65254;52.354;13.614;2023-05-10T00:08:00;9;8;
76421;PMS5003;65254;52.354;13.614;2023-05-10T00:12:00;9;8;
76421;PMS5003;65254;52.354;13.614;2023-05-10T00:16:00;9;8;
76421;PMS5003;65254;52.354;13.614;2023-05-10T00:20:00;7;7;
76421;PMS5003;65254;52.354;13.614;2023-05-10T00:24:00;8;7;
76421;PMS5003;65254;52.354;13.614;2023-05-10T00:28:00;9;8;
76421;PMS5003;65254;52.354;13.614;2023-05-10T00:32:00;9;8;
76421;PMS5003;65254;52.354;13.614;2023-05-10T00:36:02;9;8;
76421;PMS5003;65254;52.354;13.614;2023-05-10T00:40:01;9;8;
76421;PMS5003;65254;52.354;13.614;2023-05-10T00:44:00;9;8;
76421;PMS5003;65254;52.354;13.614;2023-05-10T00:48:02;9;8;
76421;PMS5003;65254;52.354;13.614;2023-05-10T00:52:01;9;8;
76421;PMS5003;65254;52.354;13.614;2023-05-10T00:56:01;9;8;
76421;PMS5003;65254;52.354;13.614;2023-05-10T01:00:01;9;8;
76421;PMS5003;65254;52.354;13.614;2023-05-10T01:04:00;9;8;
76421;PMS5003;65254;52.354;13.614;2023-05-10T01:08:00;9;8;
76421;PMS5003;65254;52.354;13.614;2023-05-10T01:12:01;9;8;
76421;PMS5003;65254;52.354;13.614;2023-05-10T01:16:00;9;8;
76421;PMS5003;65254;52.354;13.614;2023-05-10T01:20:00;10;9;
76421;PMS5003;65254;52.354;13.614;2023-05-10T01:28:08;9;8;
76421;PMS5003;65254;52.354;13.614;2023-05-10T01:32:14;10;9;
76421;PMS5003;65254;52.354;13.614;2023-05-10T01:36:05;10;9;
76421;PMS5003;65254;52.354;13.614;2023-05-10T01:40:05;9;8;
76421;PMS5003;65254;52.354;13.614;2023-05-10T01:44:09;9;8;
76421;PMS5003;65254;52.354;13.614;2023-05-10T01:48:06;9;8;
76421;PMS5003;65254;52.354;13.614;2023-05-10T01:52:06;9;8;
76421;PMS5003;65254;52.354;13.614;2023-05-10T01:56:01;10;9;
76421;PMS5003;65254;52.354;13.614;2023-05-10T02:00:02;9;8;
76421;PMS5003;65254;52.354;13.614;2023-05-10T02:04:01;10;9;
76421;PMS5003;65254;52.354;13.614;2023-05-10T02:08:01;10;9;
76421;PMS5003;65254;52.354;13.614;2023-05-10T02:12:02;9;8;
76421;PMS5003;65254;52.354;13.614;2023-05-10T02:16:01;10;9;
76421;PMS5003;65254;52.354;13.614;2023-05-10T02:20:01;10;9;
76421;PMS5003;65254;52.354;13.614;2023-05-10T02:24:01;10;9;
76421;PMS5003;65254;52.354;13.614;2023-05-10T02:28:02;10;9;
76421;PMS5003;65254;52.354;13.614;2023-05-10T02:32:01;10;9;
76421;PMS5003;65254;52.354;13.614;2023-05-10T02:36:01;10;9;
76421;PMS5003;65254;52.354;13.614;2023-05-10T02:40:01;10;9;
76421;PMS5003;65254;52.354;13.614;2023-05-10T02:44:02;9;8;
76421;PMS5003;65254;52.354;13.614;2023-05-10T02:48:00;10;9;
76421;PMS5003;65254;52.354;13.614;2023-05-10T02:52:01;9;8;
76421;PMS5003;65254;52.354;13.614;2023-05-10T02:56:04;10;9;
76421;PMS5003;65254;52.354;13.614;2023-05-10T03:00:01;9;8;
76421;PMS5003;65254;52.354;13.614;2023-05-10T03:04:00;9;8;
76421;PMS5003;65254;52.354;13.614;2023-05-10T03:08:00;9;8;
76421;PMS5003;65254;52.354;13.614;2023-05-10T03:12:04;9;8;
76421;PMS5003;65254;52.354;13.614;2023-05-10T03:16:06;8;7;
76421;PMS5003;65254;52.354;13.614;2023-05-10T03:20:06;7;7;
76421;PMS5003;65254;52.354;13.614;2023-05-10T03:24:05;9;8;
76421;PMS5003;65254;52.354;13.614;2023-05-10T03:28:01;8;7;
76421;PMS5003;65254;52.354;13.614;2023-05-10T03:32:00;9;8;
76421;PMS5003;65254;52.354;13.614;2023-05-10T03:36:00;8;7;
76421;PMS5003;65254;52.354;13.614;2023-05-10T03:40:00;8;7;
76421;PMS5003;65254;52.354;13.614;2023-05-10T03:44:00;9;8;
76421;PMS5003;65254;52.354;13.614;2023-05-10T03:48:00;9;8;
76421;PMS5003;65254;52.354;13.614;2023-05-10T03:52:00;9;8;
76421;PMS5003;65254;52.354;13.614;2023-05-10T03:56:00;9;8;
76421;PMS5003;65254;52.354;13.614;2023-05-10T04:00:01;7;7;
76421;PMS5003;65254;52.354;13.614;2023-05-10T04:04:01;8;7;
76421;PMS5003;65254;52.354;13.614;2023-05-10T04:08:00;8;7;
76421;PMS5003;65254;52.354;13.614;2023-05-10T04:12:00;9;8;
76421;PMS5003;65254;52.354;13.614;2023-05-10T04:16:00;8;7;
76421;PMS5003;65254;52.354;13.614;2023-05-10T04:20:00;7;7;
76421;PMS5003;65254;52.354;13.614;2023-05-10T04:24:00;8;7;
76421;PMS5003;65254;52.354;13.614;2023-05-10T04:28:00;7;7;
76421;PMS5003;65254;52.354;13.614;2023-05-10T04:32:00;7;7;
76421;PMS5003;65254;52.354;13.614;2023-05-10T04:36:01;6;6;
76421;PMS5003;65254;52.354;13.614;2023-05-10T04:40:01;7;7;
76421;PMS5003;65254;52.354;13.614;2023-05-10T04:44:00;7;7;
76421;PMS5003;65254;52.354;13.614;2023-05-10T04:48:00;7;7;
76421;PMS5003;65254;52.354;13.614;2023-05-10T04:52:00;6;6;
76421;PMS5003;65254;52.354;13.614;2023-05-10T04:56:00;6;6;
76421;PMS5003;65254;52.354;13.614;2023-05-10T05:00:00;6;6;
76421;PMS5003;65254;52.354;13.614;2023-05-10T05:04:01;6;6;
76421;PMS5003;65254;52.354;13.614;2023-05-10T05:08:00;6;6;
76421;PMS5003;65254;52.354;13.614;2023-05-10T05:12:00;6;6;
76421;PMS5003;65254;52.354;13.614;2023-05-10T05:16:01;5;5;
76421;PMS5003;65254;52.354;13.614;2023-05-10T05:20:00;5;5;
76421;PMS5003;65254;52.354;13.614;2023-05-10T05:24:00;6;6;
76421;PMS5003;65254;52.354;13.614;2023-05-10T05:28:00;5;5;
76421;PMS5003;65254;52.354;13.614;2023-05-10T05:32:00;6;6;
76421;PMS5003;65254;52.354;13.614;2023-05-10T05:36:01;6;6;
76421;PMS5003;65254;52.354;13.614;2023-05-10T05:40:01;5;5;
76421;PMS5003;65254;52.354;13.614;2023-05-10T05:44:00;5;5;
76421;PMS5003;65254;52.354;13.614;2023-05-10T05:48:00;5;5;
76421;PMS5003;65254;52.354;13.614;2023-05-10T05:52:01;5;5;
76421;PMS5003;65254;52.354;13.614;2023-05-10T05:56:00;4;4;
76421;PMS5003;65254;52.354;13.614;2023-05-10T06:00:00;4;4;
76421;PMS5003;65254;52.354;13.614;2023-05-10T06:04:00;4;4;
76421;PMS5003;65254;52.354;13.614;2023-05-10T06:08:00;4;4;
76421;PMS5003;65254;52.354;13.614;2023-05-10T06:12:00;4;4;
76421;PMS5003;65254;52.354;13.614;2023-05-10T06:16:00;4;4;
76421;PMS5003;65254;52.354;13.614;2023-05-10T06:20:00;4;4;
76421;PMS5003;65254;52.354;13.614;2023-05-10T06:24:00;3;3;
76421;PMS5003;65254;52.354;13.614;2023-05-10T06:28:00;3;3;
76421;PMS5003;65254;52.354;13.614;2023-05-10T06:32:00;4;4;
76421;PMS5003;65254;52.354;13.614;2023-05-10T06:36:00;4;4;
76421;PMS5003;65254;52.354;13.614;2023-05-10T06:40:00;3;3;
76421;PMS5003;65254;52.354;13.614;2023-05-10T06:44:00;4;4;
76421;PMS5003;65254;52.354;13.614;2023-05-10T06:48:00;3;3;
76421;PMS5003;65254;52.354;13.614;2023-05-10T06:52:00;3;3;
76421;PMS5003;65254;52.354;13.614;2023-05-10T06:56:00;3;3;
76421;PMS5003;65254;52.354;13.614;2023-05-10T07:00:01;3;3;
76421;PMS5003;65254;52.354;13.614;2023-05-10T07:04:00;3;3;
76421;PMS5003;65254;52.354;13.614;2023-05-10T07:08:00;3;3;
76421;PMS5003;65254;52.354;13.614;2023-05-10T07:12:00;3;3;
76421;PMS5003;65254;52.354;13.614;2023-05-10T07:16:01;3;3;
76421;PMS5003;65254;52.354;13.614;2023-05-10T07:20:01;3;3;
76421;PMS5003;65254;52.354;13.614;2023-05-10T07:24:00;2;2;
76421;PMS5003;65254;52.354;13.614;2023-05-10T07:28:00;3;3;
76421;PMS5003;65254;52.354;13.614;2023-05-10T07:32:00;2;2;
76421;PMS5003;65254;52.354;13.614;2023-05-10T07:36:00;3;3;
76421;PMS5003;65254;52.354;13.614;2023-05-10T07:40:00;2;2;
76421;PMS5003;65254;52.354;13.614;2023-05-10T07:44:00;3;3;
76421;PMS5003;65254;52.354;13.614;2023-05-10T07:48:00;3;3;
76421;PMS5003;65254;52.354;13.614;2023-05-10T07:52:01;3;3;
76421;PMS5003;65254;52.354;13.614;2023-05-10T08:00:00;3;3;
76421;PMS5003;65254;52.354;13.614;2023-05-10T08:04:01;3;3;
76421;PMS5003;65254;52.354;13.614;2023-05-10T08:08:00;2;2;
76421;PMS5003;65254;52.354;13.614;2023-05-10T08:12:00;3;3;
76421;PMS5003;65254;52.354;13.614;2023-05-10T08:16:00;3;3;
76421;PMS5003;65254;52.354;13.614;2023-05-10T08:20:01;3;3;
76421;PMS5003;65254;52.354;13.614;2023-05-10T08:24:00;3;3;
76421;PMS5003;65254;52.354;13.614;2023-05-10T08:28:00;3;3;
76421;PMS5003;65254;52.354;13.614;2023-05-10T08:32:00;3;3;
76421;PMS5003;65254;52.354;13.614;2023-05-10T08:36:00;3;3;
76421;PMS5003;65254;52.354;13.614;2023-05-10T08:40:00;3;3;
76421;PMS5003;65254;52.354;13.614;2023-05-10T08:44:02;3;3;
76421;PMS5003;65254;52.354;13.614;2023-05-10T08:48:01;3;3;
76421;PMS5003;65254;52.354;13.614;2023-05-10T08:52:02;3;3;
76421;PMS5003;65254;52.354;13.614;2023-05-10T08:56:01;2;2;
76421;PMS5003;65254;52.354;13.614;2023-05-10T09:00:01;3;3;
76421;PMS5003;65254;52.354;13.614;2023-05-10T09:04:00;3;3;
76421;PMS5003;65254;52.354;13.614;2023-05-10T09:08:00;2;2;
76421;PMS5003;65254;52.354;13.614;2023-05-10T09:12:00;3;3;
76421;PMS5003;65254;52.354;13.614;2023-05-10T09:16:10;3;3;
76421;PMS5003;65254;52.354;13.614;2023-05-10T09:20:02;3;3;
76421;PMS5003;65254;52.354;13.614;2023-05-10T09:24:03;3;3;
76421;PMS5003;65254;52.354;13.614;2023-05-10T09:28:01;3;3;
76421;PMS5003;65254;52.354;13.614;2023-05-10T09:32:00;3;3;
76421;PMS5003;65254;52.354;13.614;2023-05-10T09:36:06;3;3;
76421;PMS5003;65254;52.354;13.614;2023-05-10T09:40:04;3;3;
76421;PMS5003;65254;52.354;13.614;2023-05-10T09:44:00;3;3;
76421;PMS5003;65254;52.354;13.614;2023-05-10T09:48:01;2;2;
76421;PMS5003;65254;52.354;13.614;2023-05-10T09:52:02;3;3;
76421;PMS5003;65254;52.354;13.614;2023-05-10T09:56:00;3;3;
76421;PMS5003;65254;52.354;13.614;2023-05-10T10:00:01;3;3;
76421;PMS5003;65254;52.354;13.614;2023-05-10T10:04:03;3;3;
76421;PMS5003;65254;52.354;13.614;2023-05-10T10:08:03;3;3;
76421;PMS5003;65254;52.354;13.614;2023-05-10T10:12:01;3;3;
76421;PMS5003;65254;52.354;13.614;2023-05-10T10:16:01;3;3;
76421;PMS5003;65254;52.354;13.614;2023-05-10T10:20:02;3;3;
76421;PMS5003;65254;52.354;13.614;2023-05-10T10:24:01;3;3;
76421;PMS5003;65254;52.354;13.614;2023-05-10T10:28:10;2;2;
76421;PMS5003;65254;52.354;13.614;2023-05-10T10:32:06;2;2;
76421;PMS5003;65254;52.354;13.614;2023-05-10T10:36:02;3;3;
76421;PMS5003;65254;52.354;13.614;2023-05-10T10:40:00;2;2;
76421;PMS5003;65254;52.354;13.614;2023-05-10T10:56:09;2;2;
76421;PMS5003;65254;52.354;13.614;2023-05-10T11:04:18;3;3;
76421;PMS5003;65254;52.354;13.614;2023-05-10T11:08:07;2;2;
76421;PMS5003;65254;52.354;13.614;2023-05-10T11:12:08;3;3;
76421;PMS5003;65254;52.354;13.614;2023-05-10T11:16:11;2;2;
76421;PMS5003;65254;52.354;13.614;2023-05-10T11:20:08;3;3;
76421;PMS5003;65254;52.354;13.614;2023-05-10T11:24:01;2;2;
76421;PMS5003;65254;52.354;13.614;2023-05-10T11:28:02;3;3;
76421;PMS5003;65254;52.354;13.614;2023-05-10T11:32:00;2;2;
76421;PMS5003;65254;52.354;13.614;2023-05-10T11:36:00;2;2;
76421;PMS5003;65254;52.354;13.614;2023-05-10T11:40:01;3;3;
76421;PMS5003;65254;52.354;13.614;2023-05-10T11:44:01;3;3;
76421;PMS5003;65254;52.354;13.614;2023-05-10T11:48:01;3;3;
76421;PMS5003;65254;52.354;13.614;2023-05-10T11:52:04;3;3;
76421;PMS5003;65254;52.354;13.614;2023-05-10T11:56:04;2;2;
76421;PMS5003;65254;52.354;13.614;2023-05-10T12:00:00;2;2;
76421;PMS5003;65254;52.354;13.614;2023-05-10T12:04:01;2;2;
76421;PMS5003;65254;52.354;13.614;2023-05-10T12:08:11;2;2;
76421;PMS5003;65254;52.354;13.614;2023-05-10T12:12:02;2;2;
76421;PMS5003;65254;52.354;13.614;2023-05-10T12:16:14;2;2;
76421;PMS5003;65254;52.354;13.614;2023-05-10T12:20:14;2;2;
76421;PMS5003;65254;52.354;13.614;2023-05-10T12:24:02;3;3;
76421;PMS5003;65254;52.354;13.614;2023-05-10T12:28:03;2;2;
76421;PMS5003;65254;52.354;13.614;2023-05-10T12:32:02;2;2;
76421;PMS5003;65254;52.354;13.614;2023-05-10T12:36:00;2;2;
76421;PMS5003;65254;52.354;13.614;2023-05-10T12:40:00;3;3;
76421;PMS5003;65254;52.354;13.614;2023-05-10T12:44:00;2;2;
76421;PMS5003;65254;52.354;13.614;2023-05-10T12:48:00;2;2;
76421;PMS5003;65254;52.354;13.614;2023-05-10T12:52:00;2;2;
76421;PMS5003;65254;52.354;13.614;2023-05-10T12:56:00;2;2;
76421;PMS5003;65254;52.354;13.614;2023-05-10T13:00:00;2;2;
76421;PMS5003;65254;52.354;13.614;2023-05-10T13:04:00;2;2;
76421;PMS5003;65254;52.354;13.614;2023-05-10T13:08:00;2;2;
76421;PMS5003;65254;52.354;13.614;2023-05-10T13:12:01;2;2;
76421;PMS5003;65254;52.354;13.614;2023-05-10T13:16:00;2;2;
76421;PMS5003;65254;52.354;13.614;2023-05-10T13:20:00;2;2;
76421;PMS5003;65254;52.354;13.614;2023-05-10T13:24:00;2;2;
76421;PMS5003;65254;52.354;13.614;2023-05-10T13:28:01;2;2;
76421;PMS5003;65254;52.354;13.614;2023-05-10T13:32:00;2;2;
76421;PMS5003;65254;52.354;13.614;2023-05-10T13:36:00;2;2;
76421;PMS5003;65254;52.354;13.614;2023-05-10T13:40:00;2;2;
76421;PMS5003;65254;52.354;13.614;2023-05-10T13:44:00;1;1;
76421;PMS5003;65254;52.354;13.614;2023-05-10T13:48:00;1;1;
76421;PMS5003;65254;52.354;13.614;2023-05-10T13:52:00;2;2;
76421;PMS5003;65254;52.354;13.614;2023-05-10T13:56:00;2;2;
76421;PMS5003;65254;52.354;13.614;2023-05-10T14:00:00;2;2;
76421;PMS5003;65254;52.354;13.614;2023-05-10T14:04:00;2;2;
76421;PMS5003;65254;52.354;13.614;2023-05-10T14:08:00;2;2;
76421;PMS5003;65254;52.354;13.614;2023-05-10T14:12:00;2;2;
76421;PMS5003;65254;52.354;13.614;2023-05-10T14:16:00;2;2;
76421;PMS5003;65254;52.354;13.614;2023-05-10T14:20:00;2;2;
76421;PMS5003;65254;52.354;13.614;2023-05-10T14:24:00;2;2;
76421;PMS5003;65254;52.354;13.614;2023-05-10T14:28:00;2;2;
76421;PMS5003;65254;52.354;13.614;2023-05-10T14:32:00;2;2;
76421;PMS5003;65254;52.354;13.614;2023-05-10T14:36:00;2;2;
76421;PMS5003;65254;52.354;13.614;2023-05-10T14:40:00;2;2;
76421;PMS5003;65254;52.354;13.614;2023-05-10T14:44:00;2;2;
76421;PMS5003;65254;52.354;13.614;2023-05-10T14:48:00;2;2;
76421;PMS5003;65254;52.354;13.614;2023-05-10T14:52:00;2;2;
76421;PMS5003;65254;52.354;13.614;2023-05-10T14:56:00;2;2;
76421;PMS5003;65254;52.354;13.614;2023-05-10T15:00:01;2;2;
76421;PMS5003;65254;52.354;13.614;2023-05-10T15:04:01;2;2;
76421;PMS5003;65254;52.354;13.614;2023-05-10T15:08:00;2;2;
76421;PMS5003;65254;52.354;13.614;2023-05-10T15:12:00;2;2;
76421;PMS5003;65254;52.354;13.614;2023-05-10T15:16:00;2;2;
76421;PMS5003;65254;52.354;13.614;2023-05-10T15:20:00;2;2;
76421;PMS5003;65254;52.354;13.614;2023-05-10T15:24:00;2;2;
76421;PMS5003;65254;52.354;13.614;2023-05-10T15:28:00;2;2;
76421;PMS5003;65254;52.354;13.614;2023-05-10T15:32:01;2;2;
76421;PMS5003;65254;52.354;13.614;2023-05-10T15:36:00;2;2;
76421;PMS5003;65254;52.354;13.614;2023-05-10T15:40:00;2;2;
76421;PMS5003;65254;52.354;13.614;2023-05-10T15:44:01;2;2;
76421;PMS5003;65254;52.354;13.614;2023-05-10T15:48:01;2;2;
76421;PMS5003;65254;52.354;13.614;2023-05-10T15:52:00;2;2;
76421;PMS5003;65254;52.354;13.614;2023-05-10T15:56:00;2;2;
76421;PMS5003;65254;52.354;13.614;2023-05-10T16:00:00;2;2;
76421;PMS5003;65254;52.354;13.614;2023-05-10T16:04:01;3;3;
76421;PMS5003;65254;52.354;13.614;2023-05-10T16:08:00;2;2;
76421;PMS5003;65254;52.354;13.614;2023-05-10T16:12:01;2;2;
76421;PMS5003;65254;52.354;13.614;2023-05-10T16:16:00;2;2;
76421;PMS5003;65254;52.354;13.614;2023-05-10T16:20:00;3;3;
76421;PMS5003;65254;52.354;13.614;2023-05-10T16:24:02;3;3;
76421;PMS5003;65254;52.354;13.614;2023-05-10T16:28:00;3;3;
76421;PMS5003;65254;52.354;13.614;2023-05-10T16:32:00;2;2;
76421;PMS5003;65254;52.354;13.614;2023-05-10T16:36:00;2;2;
76421;PMS5003;65254;52.354;13.614;2023-05-10T16:40:01;3;3;
76421;PMS5003;65254;52.354;13.614;2023-05-10T16:44:00;3;3;
76421;PMS5003;65254;52.354;13.614;2023-05-10T16:48:00;4;4;
76421;PMS5003;65254;52.354;13.614;2023-05-10T16:52:00;5;5;
76421;PMS5003;65254;52.354;13.614;2023-05-10T16:56:01;5;5;
76421;PMS5003;65254;52.354;13.614;2023-05-10T17:00:01;5;5;
76421;PMS5003;65254;52.354;13.614;2023-05-10T17:04:01;5;5;
76421;PMS5003;65254;52.354;13.614;2023-05-10T17:08:00;6;6;
76421;PMS5003;65254;52.354;13.614;2023-05-10T17:12:00;6;6;
76421;PMS5003;65254;52.354;13.614;2023-05-10T17:16:00;5;5;
76421;PMS5003;65254;52.354;13.614;2023-05-10T17:20:00;5;5;
76421;PMS5003;65254;52.354;13.614;2023-05-10T17:24:00;5;5;
76421;PMS5003;65254;52.354;13.614;2023-05-10T17:28:00;5;5;
76421;PMS5003;65254;52.354;13.614;2023-05-10T17:32:01;5;5;
76421;PMS5003;65254;52.354;13.614;2023-05-10T17:36:00;5;5;
76421;PMS5003;65254;52.354;13.614;2023-05-10T17:40:00;5;5;
76421;PMS5003;65254;52.354;13.614;2023-05-10T17:44:00;6;6;
76421;PMS5003;65254;52.354;13.614;2023-05-10T17:48:01;6;6;
76421;PMS5003;65254;52.354;13.614;2023-05-10T17:52:00;5;5;
76421;PMS5003;65254;52.354;13.614;2023-05-10T17:56:00;13;10;
76421;PMS5003;65254;52.354;13.614;2023-05-10T18:00:00;7;6;
76421;PMS5003;65254;52.354;13.614;2023-05-10T18:04:00;5;5;
76421;PMS5003;65254;52.354;13.614;2023-05-10T18:08:00;5;5;
76421;PMS5003;65254;52.354;13.614;2023-05-10T18:12:01;6;6;
76421;PMS5003;65254;52.354;13.614;2023-05-10T18:16:00;6;6;
76421;PMS5003;65254;52.354;13.614;2023-05-10T18:20:00;6;6;
76421;PMS5003;65254;52.354;13.614;2023-05-10T18:24:00;6;6;
76421;PMS5003;65254;52.354;13.614;2023-05-10T18:28:00;7;7;
76421;PMS5003;65254;52.354;13.614;2023-05-10T18:32:00;8;7;
76421;PMS5003;65254;52.354;13.614;2023-05-10T18:36:00;10;9;
76421;PMS5003;65254;52.354;13.614;2023-05-10T18:40:01;12;11;
76421;PMS5003;65254;52.354;13.614;2023-05-10T18:44:00;10;9;
76421;PMS5003;65254;52.354;13.614;2023-05-10T18:48:00;9;8;
76421;PMS5003;65254;52.354;13.614;2023-05-10T18:52:00;7;7;
76421;PMS5003;65254;52.354;13.614;2023-05-10T18:56:00;7;7;
76421;PMS5003;65254;52.354;13.614;2023-05-10T19:00:00;18;13;
76421;PMS5003;65254;52.354;13.614;2023-05-10T19:04:00;7;7;
76421;PMS5003;65254;52.354;13.614;2023-05-10T19:08:00;6;6;
76421;PMS5003;65254;52.354;13.614;2023-05-10T19:12:00;9;8;
76421;PMS5003;65254;52.354;13.614;2023-05-10T19:16:02;32;28;
76421;PMS5003;65254;52.354;13.614;2023-05-10T19:20:02;71;61;
76421;PMS5003;65254;52.354;13.614;2023-05-10T19:24:01;43;38;
76421;PMS5003;65254;52.354;13.614;2023-05-10T19:28:00;32;28;
76421;PMS5003;65254;52.354;13.614;2023-05-10T19:32:00;27;24;
76421;PMS5003;65254;52.354;13.614;2023-05-10T19:36:00;29;26;
76421;PMS5003;65254;52.354;13.614;2023-05-10T19:40:00;32;29;
76421;PMS5003;65254;52.354;13.614;2023-05-10T19:44:00;34;30;
76421;PMS5003;65254;52.354;13.614;2023-05-10T19:48:01;24;22;
76421;PMS5003;65254;52.354;13.614;2023-05-10T19:52:00;23;21;
76421;PMS5003;65254;52.354;13.614;2023-05-10T19:56:02;23;20;
76421;PMS5003;65254;52.354;13.614;2023-05-10T20:00:00;21;19;
76421;PMS5003;65254;52.354;13.614;2023-05-10T20:04:00;29;26;
76421;PMS5003;65254;52.354;13.614;2023-05-10T20:08:00;26;23;
76421;PMS5003;65254;52.354;13.614;2023-05-10T20:12:00;19;17;
76421;PMS5003;65254;52.354;13.614;2023-05-10T20:16:00;19;17;
76421;PMS5003;65254;52.354;13.614;2023-05-10T20:20:01;18;16;
76421;PMS5003;65254;52.354;13.614;2023-05-10T20:24:00;15;14;
76421;PMS5003;65254;52.354;13.614;2023-05-10T20:28:00;13;12;
76421;PMS5003;65254;52.354;13.614;2023-05-10T20:32:00;13;12;
76421;PMS5003;65254;52.354;13.614;2023-05-10T20:36:00;12;11;
76421;PMS5003;65254;52.354;13.614;2023-05-10T20:40:00;13;12;
76421;PMS5003;65254;52.354;13.614;2023-05-10T20:44:00;14;13;
76421;PMS5003;65254;52.354;13.614;2023-05-10T20:48:01;14;13;
76421;PMS5003;65254;52.354;13.614;2023-05-10T20:52:01;14;13;
76421;PMS5003;65254;52.354;13.614;2023-05-10T20:56:00;18;16;
76421;PMS5003;65254;52.354;13.614;2023-05-10T21:00:00;19;17;
76421;PMS5003;65254;52.354;13.614;2023-05-10T21:04:00;20;18;
76421;PMS5003;65254;52.354;13.614;2023-05-10T21:08:00;19;17;
76421;PMS5003;65254;52.354;13.614;2023-05-10T21:12:00;18;16;
76421;PMS5003;65254;52.354;13.614;2023-05-10T21:16:00;15;14;
76421;PMS5003;65254;52.354;13.614;2023-05-10T21:20:00;14;13;
76421;PMS5003;65254;52.354;13.614;2023-05-10T21:24:00;13;12;
76421;PMS5003;65254;52.354;13.614;2023-05-10T21:28:00;15;14;
76421;PMS5003;65254;52.354;13.614;2023-05-10T21:32:00;14;13;
76421;PMS5003;65254;52.354;13.614;2023-05-10T21:36:00;14;13;
76421;PMS5003;65254;52.354;13.614;2023-05-10T21:40:01;14;13;
76421;PMS5003;65254;52.354;13.614;2023-05-10T21:44:00;14;13;
76421;PMS5003;65254;52.354;13.614;2023-05-10T21:48:01;12;11;
76421;PMS5003;65254;52.354;13.614;2023-05-10T21:52:00;14;13;
76421;PMS5003;65254;52.354;13.614;2023-05-10T21:56:00;13;12;
76421;PMS5003;65254;52.354;13.614;2023-05-10T22:00:00;13;12;
76421;PMS5003;65254;52.354;13.614;2023-05-10T22:04:00;12;11;
76421;PMS5003;65254;52.354;13.614;2023-05-10T22:08:00;13;12;
76421;PMS5003;65254;52.354;13.614;2023-05-10T22:12:00;13;12;
76421;PMS5003;65254;52.354;13.614;2023-05-10T22:16:00;14;13;
76421;PMS5003;65254;52.354;13.614;2023-05-10T22:20:00;13;12;
76421;PMS5003;65254;52.354;13.614;2023-05-10T22:24:00;13;12;
76421;PMS5003;65254;52.354;13.614;2023-05-10T22:28:00;13;12;
76421;PMS5003;65254;52.354;13.614;2023-05-10T22:32:00;13;12;
76421;PMS5003;65254;52.354;13.614;2023-05-10T22:36:00;12;11;
76421;PMS5003;65254;52.354;13.614;2023-05-10T22:40:00;11;10;
76421;PMS5003;65254;52.354;13.614;2023-05-10T22:44:01;12;11;
76421;PMS5003;65254;52.354;13.614;2023-05-10T22:48:02;13;12;
76421;PMS5003;65254;52.354;13.614;2023-05-10T22:52:00;12;11;
76421;PMS5003;65254;52.354;13.614;2023-05-10T22:56:01;11;10;
76421;PMS5003;65254;52.354;13.614;2023-05-10T23:00:01;11;10;
76421;PMS5003;65254;52.354;13.614;2023-05-10T23:04:00;11;10;
76421;PMS5003;65254;52.354;13.614;2023-05-10T23:08:00;10;9;
76421;PMS5003;65254;52.354;13.614;2023-05-10T23:12:00;11;10;
76421;PMS5003;65254;52.354;13.614;2023-05-10T23:16:04;11;10;
76421;PMS5003;65254;52.354;13.614;2023-05-10T23:20:00;11;10;
76421;PMS5003;65254;52.354;13.614;2023-05-10T23:24:00;13;12;
76421;PMS5003;65254;52.354;13.614;2023-05-10T23:28:00;11;10;
76421;PMS5003;65254;52.354;13.614;2023-05-10T23:32:01;10;9;
76421;PMS5003;65254;52.354;13.614;2023-05-10T23:36:00;10;9;
76421;PMS5003;65254;52.354;13.614;2023-05-10T23:40:00;11;10;
76421;PMS5003;65254;52.354;13.614;2023-05-10T23:44:00;10;9;
76421;PMS5003;65254;52.354;13.614;2023-05-10T23:48:01;11;10;
76421;PMS5003;65254;52.354;13.614;2023-05-10T23:52:00;11;10;
76421;PMS5003;65254;52.354;13.614;2023-05-10T23:56:00;10;9;
